Time;durP1;ratioP1;P1;durP2;ratioP2;P2;SDS_P1;SDS_P2;PMS_P1;PMS_P2;Temp;Humidity;BMP_temperature;BMP_pressure;BME280_temperature;BME280_humidity;BME280_pressure;Samples;Min_cycle;Max_cycle;Signal;HPM_P1;HPM_P2
2022/07/14 00:01:21;;;;;;;;;;;22.40;50.80;;;;;;6167632;23;19936;-94
2022/07/14 00:03:46;;;;;;;;;;;22.40;51.00;;;;;;6169279;23;19917;-94
2022/07/14 00:06:12;;;;;;;;;;;22.40;50.80;;;;;;6167045;23;19994;-93
2022/07/14 00:08:38;;;;;;;;;;;22.40;50.90;;;;;;6217538;22;19911;-94
2022/07/14 00:11:04;;;;;;;;;;;22.30;51.00;;;;;;6251382;23;19904;-94
2022/07/14 00:13:30;;;;;;;;;;;22.30;50.90;;;;;;6253524;23;19896;-93
2022/07/14 00:15:55;;;;;;;;;;;22.20;51.10;;;;;;6253070;23;19904;-94
2022/07/14 00:18:22;;;;;;;;;;;22.10;51.40;;;;;;6250947;22;19956;-95
2022/07/14 00:20:48;;;;;;;;;;;22.10;51.80;;;;;;6251721;23;19907;-94
2022/07/14 00:23:13;;;;;;;;;;;22.00;52.40;;;;;;6252738;23;19962;-94
2022/07/14 00:25:39;;;;;;;;;;;22.00;52.30;;;;;;6256349;23;20268;-93
2022/07/14 00:28:04;;;;;;;;;;;22.00;52.20;;;;;;6252860;23;19935;-94
2022/07/14 00:30:30;;;;;;;;;;;22.00;52.30;;;;;;6255208;23;20319;-93
2022/07/14 00:32:55;;;;;;;;;;;22.00;52.50;;;;;;6251139;23;19908;-93
2022/07/14 00:35:21;;;;;;;;;;;21.90;52.60;;;;;;6226672;23;20225;-95
2022/07/14 00:37:46;;;;;;;;;;;21.90;52.40;;;;;;6251523;23;19986;-94
2022/07/14 00:40:12;;;;;;;;;;;21.90;52.30;;;;;;6252536;23;19911;-94
2022/07/14 00:42:39;;;;;;;;;;;21.90;52.50;;;;;;6252616;23;19914;-95
2022/07/14 00:45:06;;;;;;;;;;;21.80;52.70;;;;;;6231586;23;20287;-94
2022/07/14 00:47:32;;;;;;;;;;;21.80;52.60;;;;;;6254451;23;20229;-94
2022/07/14 00:50:01;;;;;;;;;;;21.80;52.70;;;;;;6227445;23;19907;-92
2022/07/14 00:52:29;;;;;;;;;;;21.80;52.90;;;;;;6226922;23;20127;-94
2022/07/14 00:54:54;;;;;;;;;;;21.70;52.90;;;;;;6228230;23;19915;-93
2022/07/14 00:57:20;;;;;;;;;;;21.70;52.90;;;;;;6254232;23;20236;-94
2022/07/14 00:59:46;;;;;;;;;;;21.70;52.90;;;;;;6254847;22;19911;-91
2022/07/14 01:02:12;;;;;;;;;;;21.70;53.00;;;;;;6253435;22;19931;-92
2022/07/14 01:04:37;;;;;;;;;;;21.70;53.00;;;;;;6254286;23;19904;-93
2022/07/14 01:07:04;;;;;;;;;;;21.70;52.90;;;;;;6256776;23;19912;-93
2022/07/14 01:09:29;;;;;;;;;;;21.70;53.10;;;;;;6227754;23;19959;-94
2022/07/14 01:11:55;;;;;;;;;;;21.70;53.20;;;;;;6254952;23;19912;-95
2022/07/14 01:14:21;;;;;;;;;;;21.70;53.10;;;;;;6259220;23;19918;-95
2022/07/14 01:16:47;;;;;;;;;;;21.70;53.10;;;;;;6252335;23;20296;-93
2022/07/14 01:19:12;;;;;;;;;;;21.70;53.00;;;;;;6225473;23;19947;-93
2022/07/14 01:21:38;;;;;;;;;;;21.60;52.90;;;;;;6252698;23;19907;-94
2022/07/14 01:24:03;;;;;;;;;;;21.60;52.90;;;;;;6251325;23;20247;-92
2022/07/14 01:26:29;;;;;;;;;;;21.60;52.90;;;;;;6251831;22;19918;-92
2022/07/14 01:28:54;;;;;;;;;;;21.60;53.10;;;;;;6225250;23;19953;-93
2022/07/14 01:31:20;;;;;;;;;;;21.50;53.10;;;;;;6252341;23;20182;-93
2022/07/14 01:33:45;;;;;;;;;;;21.50;53.30;;;;;;6250264;23;20313;-92
2022/07/14 01:36:10;;;;;;;;;;;21.50;53.10;;;;;;6252382;23;19911;-92
2022/07/14 01:38:37;;;;;;;;;;;21.50;53.20;;;;;;6252858;23;19912;-93
2022/07/14 01:41:02;;;;;;;;;;;21.50;53.00;;;;;;6224833;22;19904;-91
2022/07/14 01:43:29;;;;;;;;;;;21.50;52.90;;;;;;6250750;23;19927;-92
2022/07/14 01:45:54;;;;;;;;;;;21.50;52.90;;;;;;6250778;23;19927;-92
2022/07/14 01:48:20;;;;;;;;;;;21.50;52.80;;;;;;6256008;23;19923;-93
2022/07/14 01:50:45;;;;;;;;;;;21.50;52.70;;;;;;6254729;23;19902;-94
2022/07/14 01:53:11;;;;;;;;;;;21.50;52.70;;;;;;6251757;23;20244;-93
2022/07/14 01:55:43;;;;;;;;;;;21.60;52.70;;;;;;6250764;23;19961;-93
2022/07/14 01:58:09;;;;;;;;;;;21.60;52.60;;;;;;6226292;23;19912;-94
2022/07/14 02:00:35;;;;;;;;;;;21.70;52.70;;;;;;6253845;23;20241;-94
2022/07/14 02:03:01;;;;;;;;;;;21.60;52.80;;;;;;6253676;23;19908;-91
2022/07/14 02:05:27;;;;;;;;;;;21.60;52.90;;;;;;6235882;23;19938;-91
2022/07/14 02:07:53;;;;;;;;;;;21.70;52.90;;;;;;6258572;22;19987;-91
2022/07/14 02:13:04;;;;;;;;;;;21.70;52.70;;;;;;6256832;22;19914;-94
2022/07/14 02:15:30;;;;;;;;;;;21.70;52.70;;;;;;6269570;23;19908;-94
2022/07/14 02:17:55;;;;;;;;;;;21.70;52.70;;;;;;6269638;22;19916;-92
2022/07/14 02:20:21;;;;;;;;;;;21.70;52.70;;;;;;6262509;23;19919;-94
2022/07/14 02:22:47;;;;;;;;;;;21.70;52.60;;;;;;6264705;23;19906;-93
2022/07/14 02:25:12;;;;;;;;;;;21.80;52.50;;;;;;6230325;23;20240;-94
2022/07/14 02:27:38;;;;;;;;;;;21.70;52.50;;;;;;6254132;23;19919;-93
2022/07/14 02:30:04;;;;;;;;;;;21.80;52.40;;;;;;6252349;23;19903;-94
2022/07/14 02:32:31;;;;;;;;;;;21.80;52.40;;;;;;6228473;23;20213;-94
2022/07/14 02:34:57;;;;;;;;;;;21.80;52.30;;;;;;6243553;23;19911;-95
2022/07/14 02:37:23;;;;;;;;;;;21.80;52.20;;;;;;6266245;22;20228;-94
2022/07/14 02:39:48;;;;;;;;;;;21.80;52.20;;;;;;6259624;23;19912;-94
2022/07/14 02:42:14;;;;;;;;;;;21.80;52.10;;;;;;6265457;23;19978;-94
2022/07/14 02:44:39;;;;;;;;;;;21.80;52.10;;;;;;6255199;22;19912;-94
2022/07/14 02:47:05;;;;;;;;;;;21.70;52.10;;;;;;6251340;23;19911;-93
2022/07/14 02:49:32;;;;;;;;;;;21.80;52.00;;;;;;6226123;23;19911;-92
2022/07/14 02:51:57;;;;;;;;;;;21.70;52.00;;;;;;6253018;23;19903;-93
2022/07/14 02:54:23;;;;;;;;;;;21.70;51.90;;;;;;6265359;22;19912;-93
2022/07/14 02:56:49;;;;;;;;;;;21.70;51.90;;;;;;6260019;23;19948;-93
2022/07/14 02:59:15;;;;;;;;;;;21.70;51.90;;;;;;6254019;23;20316;-93
2022/07/14 03:01:41;;;;;;;;;;;21.60;52.00;;;;;;6226639;23;19895;-91
2022/07/14 03:04:06;;;;;;;;;;;21.60;52.00;;;;;;6253999;22;19920;-92
2022/07/14 03:06:32;;;;;;;;;;;21.50;52.00;;;;;;6250833;23;20324;-91
2022/07/14 03:08:58;;;;;;;;;;;21.50;52.00;;;;;;6259303;22;19911;-93
2022/07/14 03:11:23;;;;;;;;;;;21.50;52.00;;;;;;6257432;23;19996;-93
2022/07/14 03:13:49;;;;;;;;;;;21.40;52.00;;;;;;6232430;23;20002;-93
2022/07/14 03:16:16;;;;;;;;;;;21.40;52.00;;;;;;6263283;23;19919;-92
2022/07/14 03:18:41;;;;;;;;;;;21.30;52.20;;;;;;6253375;23;19907;-92
2022/07/14 03:21:11;;;;;;;;;;;21.30;52.20;;;;;;6253916;23;20344;-93
2022/07/14 03:23:36;;;;;;;;;;;21.30;52.20;;;;;;6228600;23;19930;-93
2022/07/14 03:26:02;;;;;;;;;;;21.40;52.20;;;;;;6252958;23;19939;-91
2022/07/14 03:28:28;;;;;;;;;;;21.40;52.00;;;;;;6254286;23;19911;-92
2022/07/14 03:30:55;;;;;;;;;;;21.50;51.90;;;;;;6229480;23;19910;-91
2022/07/14 03:33:21;;;;;;;;;;;21.50;51.70;;;;;;6232602;23;19903;-92
2022/07/14 03:35:47;;;;;;;;;;;21.50;51.60;;;;;;6237595;23;19930;-92
2022/07/14 03:38:13;;;;;;;;;;;21.60;51.50;;;;;;6231308;23;19912;-91
2022/07/14 03:40:38;;;;;;;;;;;21.60;51.40;;;;;;6253626;23;19918;-91
2022/07/14 03:43:04;;;;;;;;;;;21.60;51.30;;;;;;6252379;23;19904;-92
2022/07/14 03:45:29;;;;;;;;;;;21.70;51.10;;;;;;6253199;23;19911;-92
2022/07/14 03:47:55;;;;;;;;;;;21.60;51.10;;;;;;6255852;23;19904;-95
2022/07/14 03:50:20;;;;;;;;;;;21.70;51.00;;;;;;6253759;23;20335;-95
2022/07/14 03:52:46;;;;;;;;;;;21.70;51.00;;;;;;6228152;23;19947;-94
2022/07/14 03:55:11;;;;;;;;;;;21.70;50.80;;;;;;6203226;23;19938;-95
2022/07/14 03:57:37;;;;;;;;;;;21.70;50.80;;;;;;6255562;23;20312;-93
2022/07/14 04:00:03;;;;;;;;;;;21.80;50.70;;;;;;6253567;23;20223;-91
2022/07/14 04:02:29;;;;;;;;;;;21.80;50.60;;;;;;6226230;23;19911;-90
2022/07/14 04:04:54;;;;;;;;;;;21.80;50.50;;;;;;6251414;23;19892;-90
2022/07/14 04:07:20;;;;;;;;;;;21.80;50.40;;;;;;6252289;22;19978;-91
2022/07/14 04:09:46;;;;;;;;;;;21.80;50.40;;;;;;6252332;23;19911;-91
2022/07/14 04:12:12;;;;;;;;;;;21.80;50.30;;;;;;6249975;23;19918;-91
2022/07/14 04:14:37;;;;;;;;;;;21.80;50.20;;;;;;6251073;23;20228;-91
2022/07/14 04:17:03;;;;;;;;;;;21.80;50.10;;;;;;6252039;22;19939;-92
2022/07/14 04:19:28;;;;;;;;;;;21.80;50.00;;;;;;6252515;23;19907;-94
2022/07/14 04:21:54;;;;;;;;;;;21.80;50.00;;;;;;6252398;23;19938;-94
2022/07/14 04:24:24;;;;;;;;;;;21.90;49.80;;;;;;6251628;23;21319;-93
2022/07/14 04:26:50;;;;;;;;;;;21.90;49.80;;;;;;6253688;23;19908;-94
2022/07/14 04:29:15;;;;;;;;;;;21.90;49.70;;;;;;6227297;23;19911;-92
2022/07/14 04:31:41;;;;;;;;;;;22.00;49.70;;;;;;6251000;23;19914;-92
2022/07/14 04:34:06;;;;;;;;;;;22.00;49.50;;;;;;6225768;23;19942;-92
2022/07/14 04:36:32;;;;;;;;;;;22.10;49.40;;;;;;6250612;23;19922;-94
2022/07/14 04:38:57;;;;;;;;;;;22.20;49.30;;;;;;6253588;23;19911;-94
2022/07/14 04:41:23;;;;;;;;;;;22.20;49.00;;;;;;6254282;23;20331;-92
2022/07/14 04:43:49;;;;;;;;;;;22.20;48.80;;;;;;6228028;23;19918;-94
2022/07/14 04:46:15;;;;;;;;;;;22.30;48.60;;;;;;6227705;22;19944;-92
2022/07/14 04:54:08;;;;;;;;;;;22.30;48.40;;;;;;6253267;23;19915;-93
2022/07/14 04:56:34;;;;;;;;;;;22.30;48.40;;;;;;6252545;23;19908;-93
2022/07/14 04:58:59;;;;;;;;;;;22.30;48.30;;;;;;6253463;23;19912;-92
2022/07/14 05:01:25;;;;;;;;;;;22.40;48.20;;;;;;6227101;23;19961;-93
2022/07/14 05:03:51;;;;;;;;;;;22.40;48.10;;;;;;6226871;23;20347;-92
2022/07/14 05:06:18;;;;;;;;;;;22.50;48.00;;;;;;6227229;22;20293;-93
2022/07/14 05:08:43;;;;;;;;;;;22.50;48.00;;;;;;6252861;23;20150;-94
2022/07/14 05:11:10;;;;;;;;;;;22.60;48.00;;;;;;6251666;22;19991;-94
2022/07/14 05:13:35;;;;;;;;;;;22.70;48.00;;;;;;6253300;23;19935;-93
2022/07/14 05:16:01;;;;;;;;;;;22.80;47.60;;;;;;6252522;22;19904;-93
2022/07/14 05:18:26;;;;;;;;;;;22.80;47.40;;;;;;6256047;23;19896;-92
2022/07/14 05:20:53;;;;;;;;;;;22.80;47.50;;;;;;6254728;23;19956;-95
2022/07/14 05:23:19;;;;;;;;;;;22.90;47.70;;;;;;6252443;22;19986;-92
2022/07/14 05:25:44;;;;;;;;;;;23.10;48.20;;;;;;6250088;23;20245;-92
2022/07/14 05:28:09;;;;;;;;;;;23.30;47.90;;;;;;6253555;22;19930;-92
2022/07/14 05:30:36;;;;;;;;;;;23.60;47.50;;;;;;6251496;23;20501;-94
2022/07/14 05:33:02;;;;;;;;;;;23.80;46.80;;;;;;6225920;23;19907;-91
2022/07/14 05:35:28;;;;;;;;;;;24.20;47.30;;;;;;6249601;23;20276;-90
2022/07/14 05:37:54;;;;;;;;;;;24.50;46.30;;;;;;6224630;23;19919;-92
2022/07/14 05:40:19;;;;;;;;;;;24.80;45.50;;;;;;6250261;23;19907;-92
2022/07/14 05:42:44;;;;;;;;;;;25.30;45.60;;;;;;6251546;23;20549;-92
2022/07/14 05:45:10;;;;;;;;;;;25.80;45.70;;;;;;6252709;23;19938;-95
2022/07/14 05:47:35;;;;;;;;;;;26.40;44.20;;;;;;6250773;23;19986;-94
2022/07/14 05:50:02;;;;;;;;;;;27.10;43.40;;;;;;6250954;23;19892;-92
2022/07/14 05:52:30;;;;;;;;;;;27.80;42.40;;;;;;6224296;23;19939;-91
2022/07/14 05:54:58;;;;;;;;;;;28.40;40.30;;;;;;6250790;23;19908;-91
2022/07/14 05:57:24;;;;;;;;;;;28.90;39.10;;;;;;6251596;23;20465;-94
2022/07/14 05:59:49;;;;;;;;;;;29.40;37.60;;;;;;6250506;23;19908;-93
2022/07/14 06:02:15;;;;;;;;;;;29.80;36.80;;;;;;6251695;23;19938;-94
2022/07/14 06:04:43;;;;;;;;;;;30.20;35.70;;;;;;6251605;22;20236;-94
2022/07/14 06:07:16;;;;;;;;;;;30.70;35.30;;;;;;6223993;23;19912;-94
2022/07/14 06:09:42;;;;;;;;;;;31.20;35.10;;;;;;6224904;23;19903;-95
2022/07/14 06:12:08;;;;;;;;;;;31.90;35.20;;;;;;6251298;22;20251;-94
2022/07/14 06:14:35;;;;;;;;;;;32.50;34.40;;;;;;6224616;23;19903;-93
2022/07/14 06:17:00;;;;;;;;;;;33.10;33.40;;;;;;6249912;22;19911;-92
2022/07/14 06:19:26;;;;;;;;;;;33.70;32.60;;;;;;6221911;23;19911;-92
2022/07/14 06:21:51;;;;;;;;;;;34.20;31.40;;;;;;6250029;23;19991;-93
2022/07/14 06:24:17;;;;;;;;;;;34.60;30.80;;;;;;6248969;23;19911;-94
2022/07/14 06:26:43;;;;;;;;;;;35.00;29.60;;;;;;6252461;22;19915;-96
2022/07/14 06:29:08;;;;;;;;;;;35.30;28.50;;;;;;6225300;23;19990;-89
2022/07/14 06:31:36;;;;;;;;;;;35.60;28.30;;;;;;6252684;23;19903;-92
2022/07/14 06:34:05;;;;;;;;;;;35.80;27.70;;;;;;6252244;23;19935;-91
2022/07/14 06:36:30;;;;;;;;;;;36.20;28.00;;;;;;6251185;23;20287;-91
2022/07/14 06:38:56;;;;;;;;;;;36.60;27.70;;;;;;6249814;23;19915;-90
2022/07/14 06:41:22;;;;;;;;;;;37.00;26.30;;;;;;6252635;23;19985;-92
2022/07/14 06:43:49;;;;;;;;;;;37.30;25.40;;;;;;6227527;23;19908;-92
2022/07/14 06:46:15;;;;;;;;;;;37.30;24.30;;;;;;6252869;23;19914;-92
2022/07/14 06:48:43;;;;;;;;;;;37.00;24.20;;;;;;6225011;23;19912;-91
2022/07/14 06:51:09;;;;;;;;;;;36.70;24.60;;;;;;6251217;23;19931;-92
2022/07/14 06:53:34;;;;;;;;;;;36.30;24.50;;;;;;6251378;23;19908;-93
2022/07/14 06:56:00;;;;;;;;;;;36.10;24.90;;;;;;6251151;23;19908;-91
2022/07/14 06:58:25;;;;;;;;;;;36.00;25.20;;;;;;6250161;23;19943;-89
2022/07/14 07:00:51;;;;;;;;;;;36.00;24.50;;;;;;6247102;23;20010;-90
2022/07/14 07:03:16;;;;;;;;;;;35.80;24.30;;;;;;6221119;22;20041;-89
2022/07/14 07:08:28;;;;;;;;;;;34.80;24.70;;;;;;6236767;22;19908;-92
2022/07/14 07:10:57;;;;;;;;;;;34.80;25.90;;;;;;6254118;23;20269;-92
2022/07/14 07:13:23;;;;;;;;;;;35.20;26.10;;;;;;6226743;22;19907;-93
2022/07/14 07:15:48;;;;;;;;;;;35.80;25.90;;;;;;6226119;23;19907;-95
2022/07/14 07:18:14;;;;;;;;;;;36.50;24.90;;;;;;6253843;23;20342;-93
2022/07/14 07:20:39;;;;;;;;;;;37.00;24.00;;;;;;6252723;23;19983;-91
2022/07/14 07:23:05;;;;;;;;;;;37.30;22.80;;;;;;6251797;23;19939;-91
2022/07/14 07:25:31;;;;;;;;;;;37.40;23.00;;;;;;6224745;23;19908;-92
2022/07/14 07:27:58;;;;;;;;;;;37.70;22.90;;;;;;6226733;23;19986;-92
2022/07/14 07:30:23;;;;;;;;;;;37.90;22.50;;;;;;6226790;23;19912;-93
2022/07/14 07:32:50;;;;;;;;;;;38.00;21.90;;;;;;6252140;23;19907;-94
2022/07/14 07:35:16;;;;;;;;;;;38.10;21.60;;;;;;6250374;23;19914;-94
2022/07/14 07:37:41;;;;;;;;;;;38.20;21.50;;;;;;6225753;23;19911;-92
2022/07/14 07:40:07;;;;;;;;;;;38.40;21.30;;;;;;6248309;23;19908;-92
2022/07/14 07:42:32;;;;;;;;;;;38.80;21.50;;;;;;6250740;23;19913;-92
2022/07/14 07:45:00;;;;;;;;;;;39.10;21.30;;;;;;6248832;23;20292;-94
2022/07/14 07:47:26;;;;;;;;;;;39.20;20.70;;;;;;6250928;23;20450;-94
2022/07/14 07:49:51;;;;;;;;;;;39.30;19.80;;;;;;6252156;23;19939;-94
2022/07/14 07:52:20;;;;;;;;;;;39.40;19.30;;;;;;6250775;23;19908;-92
2022/07/14 07:54:46;;;;;;;;;;;39.50;19.10;;;;;;6223665;23;19915;-92
2022/07/14 07:57:11;;;;;;;;;;;39.70;19.80;;;;;;6252047;23;19915;-93
2022/07/14 07:59:37;;;;;;;;;;;40.00;20.00;;;;;;6224180;23;19921;-92
2022/07/14 08:02:03;;;;;;;;;;;40.30;19.60;;;;;;6223445;23;19908;-92
2022/07/14 08:04:28;;;;;;;;;;;40.30;18.50;;;;;;6223771;23;19918;-90
2022/07/14 08:06:57;;;;;;;;;;;39.90;18.50;;;;;;6249631;23;19947;-92
2022/07/14 08:09:23;;;;;;;;;;;39.50;19.00;;;;;;6251187;22;19908;-92
2022/07/14 08:11:48;;;;;;;;;;;39.30;19.40;;;;;;6249506;23;19994;-90
2022/07/14 08:16:58;;;;;;;;;;;39.30;19.20;;;;;;6250014;23;19914;-93
2022/07/14 08:19:24;;;;;;;;;;;39.40;19.20;;;;;;6251459;22;19912;-93
2022/07/14 08:21:50;;;;;;;;;;;39.60;19.50;;;;;;6249511;23;19909;-93
2022/07/14 08:24:18;;;;;;;;;;;40.00;19.60;;;;;;6250186;23;20263;-91
2022/07/14 08:26:44;;;;;;;;;;;40.40;18.70;;;;;;6223496;23;19903;-93
2022/07/14 08:29:10;;;;;;;;;;;40.40;18.60;;;;;;6249992;23;19911;-92
2022/07/14 08:31:35;;;;;;;;;;;40.60;18.70;;;;;;6248598;23;19917;-91
2022/07/14 08:34:01;;;;;;;;;;;40.70;17.90;;;;;;6247823;23;19998;-93
2022/07/14 08:36:26;;;;;;;;;;;40.60;17.50;;;;;;6252367;23;19918;-90
2022/07/14 08:38:52;;;;;;;;;;;40.80;17.40;;;;;;6250126;23;19966;-94
2022/07/14 08:41:18;;;;;;;;;;;40.90;17.10;;;;;;6249974;23;19908;-93
2022/07/14 08:43:44;;;;;;;;;;;41.10;17.00;;;;;;6250932;23;19922;-93
2022/07/14 08:46:10;;;;;;;;;;;41.30;17.30;;;;;;6250999;23;19904;-93
2022/07/14 08:48:36;;;;;;;;;;;41.50;17.10;;;;;;6221775;23;20011;-92
2022/07/14 08:51:02;;;;;;;;;;;41.70;17.30;;;;;;6227157;23;19903;-95
2022/07/14 08:53:27;;;;;;;;;;;41.80;17.00;;;;;;6226828;23;19915;-94
2022/07/14 08:55:53;;;;;;;;;;;41.90;17.10;;;;;;6248919;23;19946;-93
2022/07/14 08:58:19;;;;;;;;;;;42.00;17.10;;;;;;6251552;22;20222;-93
2022/07/14 09:00:44;;;;;;;;;;;42.00;16.70;;;;;;6249445;23;19903;-94
2022/07/14 09:03:10;;;;;;;;;;;41.80;16.40;;;;;;6252685;22;19945;-94
2022/07/14 09:05:42;;;;;;;;;;;41.50;16.50;;;;;;6252226;23;19904;-93
2022/07/14 09:08:08;;;;;;;;;;;41.30;17.10;;;;;;6253353;22;20216;-92
2022/07/14 09:10:34;;;;;;;;;;;41.40;16.90;;;;;;6225600;23;19905;-94
2022/07/14 09:13:10;;;;;;;;;;;41.60;17.00;;;;;;6249672;23;19952;-93
2022/07/14 09:15:45;;;;;;;;;;;41.70;16.70;;;;;;6223666;23;20338;-92
2022/07/14 09:18:17;;;;;;;;;;;42.00;17.00;;;;;;6253032;22;19908;-94
2022/07/14 09:20:43;;;;;;;;;;;42.30;17.00;;;;;;6230919;23;19923;-93
2022/07/14 09:23:09;;;;;;;;;;;42.70;16.90;;;;;;6259995;23;19915;-94
2022/07/14 09:25:37;;;;;;;;;;;43.10;16.70;;;;;;6255890;23;19908;-92
2022/07/14 09:28:03;;;;;;;;;;;43.50;16.20;;;;;;6225629;22;19916;-96
2022/07/14 09:30:29;;;;;;;;;;;43.80;15.60;;;;;;6250212;23;19915;-93
2022/07/14 09:32:56;;;;;;;;;;;43.80;14.70;;;;;;6223533;23;20723;-93
2022/07/14 09:35:23;;;;;;;;;;;43.60;14.80;;;;;;6220754;23;20479;-95
2022/07/14 09:37:50;;;;;;;;;;;43.40;15.00;;;;;;6223796;23;19911;-94
2022/07/14 09:40:21;;;;;;;;;;;43.30;15.10;;;;;;6223928;23;19935;-93
2022/07/14 09:42:53;;;;;;;;;;;43.30;15.30;;;;;;6221588;23;20323;-93
2022/07/14 09:45:22;;;;;;;;;;;43.50;15.10;;;;;;6250358;23;19904;-94
2022/07/14 09:47:51;;;;;;;;;;;43.50;14.30;;;;;;6224286;23;19915;-95
2022/07/14 09:50:31;;;;;;;;;;;43.30;14.50;;;;;;6223556;23;19990;-94
2022/07/14 09:52:57;;;;;;;;;;;43.30;14.80;;;;;;6224643;23;19955;-94
2022/07/14 09:55:22;;;;;;;;;;;43.40;14.70;;;;;;6248940;23;19903;-93
2022/07/14 09:57:48;;;;;;;;;;;43.40;14.60;;;;;;6248906;23;19912;-93
2022/07/14 10:00:18;;;;;;;;;;;43.50;14.30;;;;;;6251209;23;19888;-94
2022/07/14 10:02:43;;;;;;;;;;;43.30;14.10;;;;;;6225229;23;20232;-94
2022/07/14 10:05:09;;;;;;;;;;;43.20;14.30;;;;;;6248756;23;19908;-94
2022/07/14 10:07:36;;;;;;;;;;;43.30;14.50;;;;;;6223346;23;20243;-93
2022/07/14 10:10:10;;;;;;;;;;;43.30;14.30;;;;;;6225381;23;19931;-94
2022/07/14 10:12:37;;;;;;;;;;;43.30;14.30;;;;;;6202310;23;19919;-95
2022/07/14 10:15:04;;;;;;;;;;;43.20;14.30;;;;;;6227562;23;19915;-93
2022/07/14 10:17:30;;;;;;;;;;;43.10;14.50;;;;;;6251455;23;19985;-94
2022/07/14 10:19:56;;;;;;;;;;;42.90;14.10;;;;;;6225568;23;19907;-95
2022/07/14 10:22:22;;;;;;;;;;;42.70;14.00;;;;;;6225219;23;20316;-95
2022/07/14 10:24:49;;;;;;;;;;;42.40;14.10;;;;;;6223455;23;19918;-93
2022/07/14 10:27:17;;;;;;;;;;;42.30;14.40;;;;;;6254387;23;19947;-94
2022/07/14 10:29:43;;;;;;;;;;;42.30;14.70;;;;;;6230240;23;19916;-93
2022/07/14 10:32:14;;;;;;;;;;;42.60;14.70;;;;;;6255631;23;19911;-93
2022/07/14 10:34:46;;;;;;;;;;;42.80;14.70;;;;;;6250516;23;19946;-93
2022/07/14 10:37:14;;;;;;;;;;;43.00;14.40;;;;;;6225913;23;19911;-93
2022/07/14 10:39:48;;;;;;;;;;;43.00;14.30;;;;;;6252117;23;19919;-94
2022/07/14 10:42:13;;;;;;;;;;;43.00;14.20;;;;;;6226280;23;19904;-94
2022/07/14 10:44:43;;;;;;;;;;;42.70;14.30;;;;;;6221906;23;19939;-93
2022/07/14 10:47:12;;;;;;;;;;;42.70;14.60;;;;;;6252529;23;19980;-93
2022/07/14 10:49:56;;;;;;;;;;;42.70;14.80;;;;;;6250677;22;19923;-94
2022/07/14 10:52:25;;;;;;;;;;;43.00;14.70;;;;;;6251553;23;20034;-93
2022/07/14 10:55:07;;;;;;;;;;;42.80;14.20;;;;;;6222866;23;20235;-93
2022/07/14 10:57:36;;;;;;;;;;;41.70;14.40;;;;;;6224640;23;19958;-93
2022/07/14 11:00:03;;;;;;;;;;;40.40;15.20;;;;;;6252665;22;19915;-93
2022/07/14 11:02:29;;;;;;;;;;;39.50;15.80;;;;;;6224848;23;19947;-93
2022/07/14 11:05:04;;;;;;;;;;;39.20;16.40;;;;;;6225219;23;19935;-94
2022/07/14 11:07:32;;;;;;;;;;;39.60;16.70;;;;;;6252273;23;19903;-93
2022/07/14 11:09:57;;;;;;;;;;;40.30;16.50;;;;;;6226869;23;19915;-92
2022/07/14 11:12:24;;;;;;;;;;;40.10;15.90;;;;;;6249994;23;19954;-93
2022/07/14 11:14:49;;;;;;;;;;;39.60;16.40;;;;;;6250975;23;19915;-93
2022/07/14 11:17:35;;;;;;;;;;;39.60;16.50;;;;;;6225863;23;20018;-93
2022/07/14 11:20:00;;;;;;;;;;;40.00;16.60;;;;;;6225959;23;19912;-93
2022/07/14 11:22:26;;;;;;;;;;;40.70;16.20;;;;;;6253657;23;19995;-92
2022/07/14 11:24:52;;;;;;;;;;;41.30;15.50;;;;;;6253044;23;19911;-92
2022/07/14 11:27:35;;;;;;;;;;;41.50;14.70;;;;;;6236228;23;20231;-92
2022/07/14 11:30:20;;;;;;;;;;;41.70;14.90;;;;;;6233862;23;19916;-93
2022/07/14 11:32:45;;;;;;;;;;;42.10;14.50;;;;;;6228124;23;19904;-94
2022/07/14 11:37:57;;;;;;;;;;;43.00;14.20;;;;;;6256008;23;20373;-93
2022/07/14 11:40:43;;;;;;;;;;;43.10;13.30;;;;;;6255543;22;19911;-92
2022/07/14 11:43:36;;;;;;;;;;;42.90;13.10;;;;;;6255522;22;19961;-93
2022/07/14 11:46:12;;;;;;;;;;;42.80;13.60;;;;;;6218997;23;19987;-92
2022/07/14 11:48:39;;;;;;;;;;;43.20;13.80;;;;;;6226011;23;19915;-94
2022/07/14 11:51:09;;;;;;;;;;;43.40;13.80;;;;;;6226762;23;19910;-94
2022/07/14 11:53:36;;;;;;;;;;;43.40;13.50;;;;;;6253866;23;19997;-92
2022/07/14 11:56:02;;;;;;;;;;;43.30;13.30;;;;;;6252096;23;19948;-94
2022/07/14 11:58:29;;;;;;;;;;;43.30;13.40;;;;;;6226101;23;19918;-93
2022/07/14 12:00:59;;;;;;;;;;;43.50;13.30;;;;;;6252940;23;19938;-92
2022/07/14 12:03:25;;;;;;;;;;;43.60;12.80;;;;;;6225001;23;19911;-93
2022/07/14 12:05:54;;;;;;;;;;;43.30;13.10;;;;;;6249151;23;19914;-93
2022/07/14 12:08:22;;;;;;;;;;;43.20;13.40;;;;;;6252521;23;19908;-93
2022/07/14 12:10:49;;;;;;;;;;;43.40;13.60;;;;;;6225752;23;19904;-94
2022/07/14 12:13:14;;;;;;;;;;;43.60;13.20;;;;;;6227233;22;19915;-93
2022/07/14 12:15:40;;;;;;;;;;;43.30;13.20;;;;;;6224519;23;20297;-93
2022/07/14 12:18:06;;;;;;;;;;;42.50;13.40;;;;;;6226508;22;19915;-93
2022/07/14 12:20:35;;;;;;;;;;;41.70;13.80;;;;;;6251037;23;19919;-93
2022/07/14 12:23:01;;;;;;;;;;;41.70;14.20;;;;;;6225650;22;19911;-93
2022/07/14 12:25:33;;;;;;;;;;;42.20;14.30;;;;;;6248532;23;19958;-92
2022/07/14 12:27:59;;;;;;;;;;;42.40;13.90;;;;;;6251955;23;20347;-92
2022/07/14 12:30:40;;;;;;;;;;;41.70;13.80;;;;;;6224134;23;19957;-92
2022/07/14 12:33:05;;;;;;;;;;;40.60;14.50;;;;;;6224029;23;20186;-92
2022/07/14 12:35:31;;;;;;;;;;;39.90;15.10;;;;;;6248505;23;19938;-92
2022/07/14 12:37:56;;;;;;;;;;;40.10;15.40;;;;;;6250771;23;19899;-93
2022/07/14 12:40:22;;;;;;;;;;;40.40;15.10;;;;;;6250330;23;20313;-92
2022/07/14 12:42:47;;;;;;;;;;;40.70;15.20;;;;;;6250115;23;19962;-93
2022/07/14 12:45:13;;;;;;;;;;;41.00;15.10;;;;;;6247486;23;19911;-93
2022/07/14 12:47:48;;;;;;;;;;;41.10;14.70;;;;;;6250442;23;19946;-93
2022/07/14 12:50:21;;;;;;;;;;;41.10;14.60;;;;;;6252215;23;19908;-93
2022/07/14 12:52:53;;;;;;;;;;;40.60;14.10;;;;;;6252512;23;19911;-92
2022/07/14 12:55:36;;;;;;;;;;;39.90;14.80;;;;;;6222857;23;19908;-92
2022/07/14 12:58:02;;;;;;;;;;;39.30;15.10;;;;;;6251822;22;20332;-93
2022/07/14 13:00:30;;;;;;;;;;;38.70;15.50;;;;;;6252554;23;20331;-93
2022/07/14 13:03:15;;;;;;;;;;;38.40;15.90;;;;;;6226247;23;19904;-93
2022/07/14 13:05:52;;;;;;;;;;;38.20;16.20;;;;;;6222959;23;19919;-92
2022/07/14 13:08:27;;;;;;;;;;;38.30;16.50;;;;;;6252816;22;19908;-92
2022/07/14 13:10:56;;;;;;;;;;;38.50;16.50;;;;;;6225125;23;20316;-92
2022/07/14 13:13:31;;;;;;;;;;;38.60;16.20;;;;;;6224859;22;20326;-93
2022/07/14 13:16:18;;;;;;;;;;;38.50;16.20;;;;;;6222957;23;19982;-92
2022/07/14 13:19:03;;;;;;;;;;;38.30;16.00;;;;;;6226193;23;19939;-91
2022/07/14 13:21:48;;;;;;;;;;;37.90;16.30;;;;;;6225189;23;19907;-92
2022/07/14 13:24:14;;;;;;;;;;;37.50;16.60;;;;;;6224656;23;19916;-88
2022/07/14 13:26:40;;;;;;;;;;;37.30;16.70;;;;;;6248193;23;20022;-88
2022/07/14 13:29:06;;;;;;;;;;;37.10;17.00;;;;;;6223438;23;19915;-89
2022/07/14 13:31:31;;;;;;;;;;;36.80;17.50;;;;;;6248938;23;19910;-89
2022/07/14 13:33:58;;;;;;;;;;;36.60;17.80;;;;;;6250644;22;19943;-89
2022/07/14 13:36:24;;;;;;;;;;;36.30;18.00;;;;;;6249013;23;19904;-89
2022/07/14 13:38:50;;;;;;;;;;;36.30;18.30;;;;;;6222517;23;19946;-88
2022/07/14 13:41:16;;;;;;;;;;;36.20;17.60;;;;;;6223273;23;19904;-88
2022/07/14 13:43:42;;;;;;;;;;;35.90;17.70;;;;;;6224994;23;19919;-87
2022/07/14 13:46:08;;;;;;;;;;;35.90;17.90;;;;;;6249568;23;20269;-88
2022/07/14 13:48:34;;;;;;;;;;;35.80;18.30;;;;;;6253202;23;19972;-88
2022/07/14 13:53:44;;;;;;;;;;;35.40;18.70;;;;;;6251053;22;19919;-87
2022/07/14 13:56:12;;;;;;;;;;;35.20;18.80;;;;;;6252153;23;19926;-88
2022/07/14 13:58:38;;;;;;;;;;;35.10;19.10;;;;;;6253308;22;19955;-88
2022/07/14 14:01:03;;;;;;;;;;;34.90;19.20;;;;;;6253828;23;19959;-88
2022/07/14 14:03:29;;;;;;;;;;;34.70;19.00;;;;;;6254396;23;20387;-87
2022/07/14 14:05:55;;;;;;;;;;;34.40;19.50;;;;;;6250496;23;19908;-88
2022/07/14 14:08:22;;;;;;;;;;;34.10;19.80;;;;;;6226469;22;19926;-88
2022/07/14 14:10:49;;;;;;;;;;;33.90;20.10;;;;;;6225022;23;19912;-88
2022/07/14 14:13:14;;;;;;;;;;;33.60;20.60;;;;;;6250581;22;19904;-88
2022/07/14 14:15:40;;;;;;;;;;;33.50;21.00;;;;;;6249616;23;19962;-88
2022/07/14 14:18:05;;;;;;;;;;;33.40;21.30;;;;;;6251850;23;19903;-88
2022/07/14 14:20:31;;;;;;;;;;;33.40;21.50;;;;;;6250029;23;19914;-89
2022/07/14 14:22:57;;;;;;;;;;;33.20;21.40;;;;;;6253312;23;19916;-88
2022/07/14 14:25:22;;;;;;;;;;;32.80;21.60;;;;;;6250885;22;19919;-86
2022/07/14 14:27:48;;;;;;;;;;;32.40;21.80;;;;;;6229037;23;19911;-87
2022/07/14 14:30:14;;;;;;;;;;;32.20;22.30;;;;;;6254097;23;19926;-89
2022/07/14 14:32:39;;;;;;;;;;;32.00;22.50;;;;;;6253483;23;19934;-89
2022/07/14 14:35:06;;;;;;;;;;;31.70;22.50;;;;;;6250673;22;19904;-89